createdAt,value
2022-10-10T00:01:13.525Z,98663.16
2022-10-10T00:03:40.752Z,98661.38
2022-10-10T00:06:08.588Z,98662.63
2022-10-10T00:08:35.739Z,98657.97
2022-10-10T00:11:02.779Z,98660.03
2022-10-10T00:13:29.425Z,98658.63
2022-10-10T00:15:56.097Z,98662.13
2022-10-10T00:18:22.746Z,98660.91
2022-10-10T00:20:52.451Z,98662.13
2022-10-10T00:23:19.932Z,98653.84
2022-10-10T00:25:50.414Z,98656.59
2022-10-10T00:28:17.921Z,98661.97
2022-10-10T00:30:44.989Z,98662.84
2022-10-10T00:33:11.923Z,98656.75
2022-10-10T00:35:42.439Z,98656.09
2022-10-10T00:38:10.281Z,98664.25
2022-10-10T00:40:45.919Z,98648.59
2022-10-10T00:43:14.322Z,98656.75
2022-10-10T00:45:43.366Z,98658.59
2022-10-10T00:48:11.938Z,98664.69
2022-10-10T00:50:42.903Z,98651.47
2022-10-10T00:53:13.175Z,98649.66
2022-10-10T00:55:39.893Z,98658.59
2022-10-10T00:58:09.005Z,98646.16
2022-10-10T01:00:35.745Z,98654.72
2022-10-10T01:03:02.377Z,98651.31
2022-10-10T01:05:29.518Z,98649.03
2022-10-10T01:07:56.893Z,98650.47
2022-10-10T01:10:24.806Z,98646.84
2022-10-10T01:12:56.887Z,98640.97
2022-10-10T01:15:30.558Z,98649.56
2022-10-10T01:18:07.195Z,98648.97
2022-10-10T01:20:53.375Z,98652.06
2022-10-10T01:23:47.353Z,98648.41
2022-10-10T01:26:44.534Z,98641.47
2022-10-10T01:29:30.640Z,98652.41
2022-10-10T01:32:06.702Z,98648.97
2022-10-10T01:34:49.636Z,98645.13
2022-10-10T01:37:20.754Z,98643.09
2022-10-10T01:40:14.401Z,98638.66
2022-10-10T01:42:48.047Z,98639.69
2022-10-10T01:45:14.823Z,98639.72
2022-10-10T01:47:41.840Z,98645.59
2022-10-10T01:50:14.459Z,98641.56
2022-10-10T01:52:42.070Z,98644.38
2022-10-10T01:55:09.743Z,98643.38
2022-10-10T01:57:56.352Z,98649.88
2022-10-10T02:00:23.076Z,98650.28
2022-10-10T02:03:16.885Z,98649.06
2022-10-10T02:05:58.815Z,98641.56
2022-10-10T02:08:33.499Z,98646.00
2022-10-10T02:11:03.171Z,98642.34
2022-10-10T02:13:39.655Z,98637.50
2022-10-10T02:16:13.909Z,98648.66
2022-10-10T02:18:45.513Z,98650.72
2022-10-10T02:21:14.927Z,98637.91
2022-10-10T02:23:43.607Z,98641.56
2022-10-10T02:26:13.662Z,98645.03
2022-10-10T02:28:48.069Z,98641.75
2022-10-10T02:31:21.531Z,98644.22
2022-10-10T02:33:53.280Z,98642.19
2022-10-10T02:36:22.346Z,98644.41
2022-10-10T02:38:50.758Z,98643.59
2022-10-10T02:41:20.057Z,98641.19
2022-10-10T02:43:47.849Z,98637.91
2022-10-10T02:46:14.871Z,98637.50
2022-10-10T02:48:42.583Z,98639.75
2022-10-10T02:51:10.759Z,98632.63
2022-10-10T02:53:38.089Z,98625.72
2022-10-10T02:56:05.106Z,98629.41
2022-10-10T02:58:32.079Z,98633.84
2022-10-10T03:00:58.958Z,98628.19
2022-10-10T03:03:25.883Z,98629.75
2022-10-10T03:05:52.811Z,98633.03
2022-10-10T03:08:19.412Z,98632.03
2022-10-10T03:11:01.642Z,98639.34
2022-10-10T03:13:28.458Z,98635.06
2022-10-10T03:15:55.126Z,98633.25
2022-10-10T03:18:21.869Z,98637.09
2022-10-10T03:20:54.028Z,98640.31
2022-10-10T03:23:20.995Z,98640.53
2022-10-10T03:25:47.961Z,98643.78
2022-10-10T03:28:14.935Z,98645.00
2022-10-10T03:30:42.132Z,98651.69
2022-10-10T03:33:09.495Z,98652.91
2022-10-10T03:35:36.415Z,98650.69
2022-10-10T03:38:04.043Z,98649.88
2022-10-10T03:40:31.121Z,98650.69
2022-10-10T03:42:57.861Z,98651.50
2022-10-10T03:45:24.637Z,98640.53
2022-10-10T03:47:51.691Z,98637.88
2022-10-10T03:50:18.678Z,98645.00
2022-10-10T03:52:45.481Z,98634.66
2022-10-10T03:55:12.222Z,98641.75
2022-10-10T03:57:38.876Z,98641.94
2022-10-10T04:00:06.007Z,98635.88
2022-10-10T04:02:32.980Z,98643.56
2022-10-10T04:04:59.661Z,98642.97
2022-10-10T04:07:26.325Z,98644.81
2022-10-10T04:09:52.948Z,98641.56
2022-10-10T04:12:19.608Z,98635.44
2022-10-10T04:14:46.270Z,98628.75
2022-10-10T04:17:13.049Z,98630.78
2022-10-10T04:19:42.818Z,98629.75
2022-10-10T04:22:11.272Z,98635.03
2022-10-10T04:24:38.423Z,98632.22
2022-10-10T04:27:08.590Z,98635.91
2022-10-10T04:29:35.236Z,98636.09
2022-10-10T04:32:02.010Z,98636.09
2022-10-10T04:34:28.716Z,98640.97
2022-10-10T04:36:55.454Z,98642.00
2022-10-10T04:39:22.283Z,98645.03
2022-10-10T04:41:50.123Z,98642.78
2022-10-10T04:44:17.535Z,98639.56
2022-10-10T04:46:44.286Z,98648.06
2022-10-10T04:49:11.025Z,98644.84
2022-10-10T04:51:37.805Z,98642.41
2022-10-10T04:54:04.622Z,98637.94
2022-10-10T04:56:31.409Z,98641.59
2022-10-10T04:58:58.057Z,98641.38
2022-10-10T05:01:24.773Z,98633.25
2022-10-10T05:03:51.371Z,98643.41
2022-10-10T05:06:20.093Z,98643.41
2022-10-10T05:08:46.755Z,98646.63
2022-10-10T05:11:13.890Z,98649.25
2022-10-10T05:13:40.628Z,98644.41
2022-10-10T05:16:07.309Z,98644.22
2022-10-10T05:18:36.800Z,98648.28
2022-10-10T05:21:04.121Z,98650.50
2022-10-10T05:23:30.841Z,98654.56
2022-10-10T05:25:57.435Z,98651.72
2022-10-10T05:28:24.251Z,98656.97
2022-10-10T05:30:52.201Z,98655.34
2022-10-10T05:33:18.870Z,98656.16
2022-10-10T05:35:45.471Z,98648.47
2022-10-10T05:38:12.166Z,98648.88
2022-10-10T05:40:40.679Z,98655.78
2022-10-10T05:43:08.035Z,98646.66
2022-10-10T05:45:34.683Z,98645.19
2022-10-10T05:48:01.485Z,98653.72
2022-10-10T05:50:46.784Z,98667.47
2022-10-10T05:53:13.810Z,98659.56
2022-10-10T05:55:40.745Z,98665.88
2022-10-10T05:58:07.775Z,98665.50
2022-10-10T06:00:35.164Z,98667.75
2022-10-10T06:03:02.090Z,98667.75
2022-10-10T06:05:29.180Z,98674.44
2022-10-10T06:08:12.279Z,98675.66
2022-10-10T06:10:42.462Z,98681.78
2022-10-10T06:13:10.933Z,98676.91
2022-10-10T06:15:37.897Z,98687.06
2022-10-10T06:18:05.170Z,98686.25
2022-10-10T06:20:35.545Z,98689.72
2022-10-10T06:23:02.540Z,98683.22
2022-10-10T06:25:39.913Z,98692.34
2022-10-10T06:28:07.982Z,98695.41
2022-10-10T06:30:35.215Z,98702.69
2022-10-10T06:33:02.091Z,98697.63
2022-10-10T06:35:28.939Z,98691.34
2022-10-10T06:37:55.608Z,98700.88
2022-10-10T06:40:22.282Z,98702.09
2022-10-10T06:42:49.197Z,98696.19
2022-10-10T06:45:16.255Z,98695.59
2022-10-10T06:47:42.992Z,98700.44
2022-10-10T06:50:09.798Z,98701.22
2022-10-10T06:52:36.461Z,98698.78
2022-10-10T06:55:03.248Z,98699.59
2022-10-10T06:57:29.919Z,98708.53
2022-10-10T06:59:56.616Z,98712.38
2022-10-10T07:02:23.304Z,98705.44
2022-10-10T07:04:49.965Z,98709.50
2022-10-10T07:07:16.797Z,98706.72
2022-10-10T07:09:43.597Z,98712.00
2022-10-10T07:12:10.367Z,98711.78
2022-10-10T07:14:37.193Z,98709.75
2022-10-10T07:17:04.330Z,98710.75
2022-10-10T07:19:30.987Z,98713.00
2022-10-10T07:21:57.642Z,98718.66
2022-10-10T07:24:24.298Z,98723.63
2022-10-10T07:27:02.317Z,98724.94
2022-10-10T07:29:30.590Z,98721.72
2022-10-10T07:31:57.684Z,98724.94
2022-10-10T07:34:24.710Z,98729.59
2022-10-10T07:36:51.479Z,98719.66
2022-10-10T07:39:23.448Z,98725.59
2022-10-10T07:41:51.950Z,98727.13
2022-10-10T07:44:19.798Z,98728.44
2022-10-10T07:46:47.034Z,98730.22
2022-10-10T07:49:13.711Z,98729.47
2022-10-10T07:51:40.566Z,98729.25
2022-10-10T07:54:07.195Z,98732.03
2022-10-10T07:56:33.901Z,98741.53
2022-10-10T07:59:01.043Z,98735.28
2022-10-10T08:01:27.975Z,98738.38
2022-10-10T08:03:57.102Z,98735.50
2022-10-10T08:06:24.799Z,98737.41
2022-10-10T08:08:52.309Z,98736.56
2022-10-10T08:11:21.493Z,98738.94
2022-10-10T08:13:49.261Z,98740.16
2022-10-10T08:16:16.181Z,98739.81
2022-10-10T08:18:42.867Z,98736.38
2022-10-10T08:21:12.931Z,98741.78
2022-10-10T08:23:40.268Z,98748.31
2022-10-10T08:26:09.987Z,98737.31
2022-10-10T08:28:40.466Z,98737.78
2022-10-10T08:31:09.876Z,98737.13
2022-10-10T08:33:36.908Z,98734.13
2022-10-10T08:36:09.893Z,98747.53
2022-10-10T08:38:40.945Z,98732.38
2022-10-10T08:41:14.133Z,98737.03
2022-10-10T08:43:48.254Z,98732.75
2022-10-10T08:46:21.820Z,98729.59
2022-10-10T08:48:50.696Z,98724.16
2022-10-10T08:51:28.953Z,98723.47
2022-10-10T08:53:59.056Z,98725.09
2022-10-10T08:56:30.839Z,98731.44
2022-10-10T08:59:06.316Z,98732.78
2022-10-10T09:01:35.981Z,98726.50
2022-10-10T09:04:22.830Z,98734.34
2022-10-10T09:06:51.475Z,98735.63
2022-10-10T09:09:19.188Z,98735.75
2022-10-10T09:12:01.307Z,98731.97
2022-10-10T09:14:50.684Z,98728.31
2022-10-10T09:20:32.492Z,98728.53
2022-10-10T09:23:28.185Z,98732.16
2022-10-10T09:26:01.994Z,98736.59
2022-10-10T09:28:47.764Z,98735.81
2022-10-10T09:31:23.050Z,98738.56
2022-10-10T09:33:59.913Z,98737.59
2022-10-10T09:36:34.040Z,98737.28
2022-10-10T09:39:03.742Z,98726.53
2022-10-10T09:41:38.869Z,98730.88
2022-10-10T09:44:10.367Z,98734.50
2022-10-10T09:46:38.311Z,98722.97
2022-10-10T09:49:05.729Z,98721.28
2022-10-10T09:51:33.107Z,98721.13
2022-10-10T09:54:00.216Z,98714.63
2022-10-10T09:56:31.967Z,98717.66
2022-10-10T09:58:58.739Z,98713.19
2022-10-10T10:01:31.124Z,98711.38
2022-10-10T10:04:30.437Z,98715.25
2022-10-10T10:07:08.884Z,98716.88
2022-10-10T10:09:35.618Z,98715.00
2022-10-10T10:12:05.384Z,98711.75
2022-10-10T10:14:37.954Z,98716.25
2022-10-10T10:17:11.039Z,98715.63
2022-10-10T10:19:40.688Z,98708.81
2022-10-10T10:22:30.516Z,98708.06
2022-10-10T10:24:57.788Z,98712.44
2022-10-10T10:27:27.417Z,98704.16
2022-10-10T10:29:56.828Z,98702.31
2022-10-10T10:32:38.842Z,98701.25
2022-10-10T10:35:17.630Z,98709.13
2022-10-10T10:38:13.787Z,98700.91
2022-10-10T10:40:57.622Z,98708.94
2022-10-10T10:43:50.365Z,98700.31
2022-10-10T10:46:31.540Z,98695.25
2022-10-10T10:49:14.688Z,98702.31
2022-10-10T10:52:10.755Z,98694.28
2022-10-10T10:54:57.244Z,98689.19
2022-10-10T10:57:37.426Z,98691.88
2022-10-10T11:00:22.001Z,98683.56
2022-10-10T11:03:14.801Z,98681.16
2022-10-10T11:06:13.611Z,98679.56
2022-10-10T11:09:01.342Z,98676.63
2022-10-10T11:11:46.893Z,98674.75
2022-10-10T11:14:38.819Z,98682.50
2022-10-10T11:17:14.994Z,98671.25
2022-10-10T11:19:47.166Z,98666.41
2022-10-10T11:22:18.409Z,98660.78
2022-10-10T11:25:02.605Z,98656.53
2022-10-10T11:27:34.127Z,98656.78
2022-10-10T11:30:23.208Z,98658.38
2022-10-10T11:33:05.219Z,98657.59
2022-10-10T11:35:33.878Z,98656.75
2022-10-10T11:38:06.709Z,98652.19
2022-10-10T11:40:42.705Z,98653.00
2022-10-10T11:43:18.588Z,98642.00
2022-10-10T11:45:52.262Z,98646.00
2022-10-10T11:48:25.682Z,98647.88
2022-10-10T11:50:59.719Z,98651.66
2022-10-10T11:53:34.223Z,98647.66
2022-10-10T11:56:21.679Z,98642.56
2022-10-10T11:58:54.796Z,98637.75
2022-10-10T12:01:33.747Z,98633.16
2022-10-10T12:04:00.489Z,98638.25
2022-10-10T12:06:48.760Z,98634.47
2022-10-10T12:09:24.919Z,98622.13
2022-10-10T12:11:56.659Z,98629.91
2022-10-10T12:14:26.473Z,98627.44
2022-10-10T12:16:53.547Z,98624.47
2022-10-10T12:19:22.193Z,98617.47
2022-10-10T12:22:06.192Z,98611.22
2022-10-10T12:24:39.697Z,98610.69
2022-10-10T12:27:25.248Z,98608.28
2022-10-10T12:29:55.099Z,98607.41
2022-10-10T12:32:22.694Z,98608.47
2022-10-10T12:34:49.412Z,98607.06
2022-10-10T12:37:27.090Z,98605.09
2022-10-10T12:40:20.682Z,98599.69
2022-10-10T12:42:50.499Z,98608.50
2022-10-10T12:45:32.447Z,98605.75
2022-10-10T12:48:06.320Z,98603.53
2022-10-10T12:50:38.218Z,98601.91
2022-10-10T12:53:15.956Z,98605.06
2022-10-10T12:55:45.750Z,98601.25
2022-10-10T12:58:27.473Z,98592.66
2022-10-10T13:08:05.204Z,98591.44
2022-10-10T13:10:33.177Z,98593.47
2022-10-10T13:13:01.366Z,98596.09
2022-10-10T13:15:29.405Z,98588.34
2022-10-10T13:17:56.248Z,98582.16
2022-10-10T13:20:26.948Z,98590.38
2022-10-10T13:22:54.051Z,98583.06
2022-10-10T13:25:21.614Z,98587.63
2022-10-10T13:27:48.335Z,98591.28
2022-10-10T13:30:29.069Z,98594.69
2022-10-10T13:32:56.967Z,98595.72
2022-10-10T13:35:27.194Z,98586.56
2022-10-10T13:37:58.367Z,98596.06
2022-10-10T13:40:26.981Z,98597.69
2022-10-10T13:42:55.248Z,98595.63
2022-10-10T13:45:29.310Z,98590.00
2022-10-10T13:48:10.340Z,98590.31
2022-10-10T13:50:57.047Z,98592.72
2022-10-10T13:53:27.543Z,98591.22
2022-10-10T13:56:04.931Z,98589.69
2022-10-10T13:58:38.723Z,98585.94
2022-10-10T14:01:05.744Z,98585.84
2022-10-10T14:03:34.576Z,98585.50
2022-10-10T14:19:55.129Z,98594.94
2022-10-10T14:23:19.071Z,98589.94
2022-10-10T14:35:05.062Z,98581.50
2022-10-10T15:07:54.648Z,98581.22
2022-10-10T15:18:39.607Z,98583.50
2022-10-10T15:21:07.359Z,98582.13
2022-10-10T15:23:33.978Z,98582.81
2022-10-10T15:26:00.748Z,98588.66
2022-10-10T15:28:27.430Z,98586.22
2022-10-10T15:30:54.648Z,98585.59
2022-10-10T15:33:21.444Z,98582.50
2022-10-10T15:36:12.188Z,98594.63
2022-10-10T15:38:40.446Z,98594.06
2022-10-10T15:41:09.768Z,98593.91
2022-10-10T15:43:54.576Z,98595.00
2022-10-10T15:46:23.826Z,98599.91
2022-10-10T15:48:50.558Z,98602.38
2022-10-10T15:51:17.464Z,98600.53
2022-10-10T15:53:44.415Z,98607.00
2022-10-10T15:56:15.586Z,98602.22
2022-10-10T15:58:42.984Z,98603.31
2022-10-10T16:01:19.967Z,98613.56
2022-10-10T16:03:49.402Z,98609.25
2022-10-10T16:06:18.365Z,98611.69
2022-10-10T16:08:52.371Z,98620.53
2022-10-10T16:11:24.559Z,98619.75
2022-10-10T16:13:53.574Z,98616.28
2022-10-10T16:16:29.630Z,98613.63
2022-10-10T16:18:56.363Z,98618.72
2022-10-10T16:21:24.770Z,98621.94
2022-10-10T16:23:57.032Z,98617.09
2022-10-10T16:26:29.179Z,98620.00
2022-10-10T16:28:56.733Z,98618.34
2022-10-10T16:31:27.000Z,98622.88
2022-10-10T16:33:55.512Z,98631.69
2022-10-10T16:36:25.051Z,98622.81
2022-10-10T16:38:54.011Z,98628.94
2022-10-10T16:41:42.871Z,98628.59
2022-10-10T16:44:07.738Z,98628.81
2022-10-10T16:46:34.856Z,98626.63
2022-10-10T16:49:01.711Z,98632.72
2022-10-10T16:51:32.590Z,98637.22
2022-10-10T16:54:01.649Z,98640.34
2022-10-10T16:56:29.812Z,98639.78
2022-10-10T16:58:59.270Z,98634.91
2022-10-10T17:01:26.102Z,98632.72
2022-10-10T17:03:53.097Z,98617.72
2022-10-10T17:06:23.356Z,98631.84
2022-10-10T17:08:52.653Z,98637.41
2022-10-10T17:11:21.398Z,98631.47
2022-10-10T17:13:49.492Z,98638.41
2022-10-10T17:16:59.829Z,98645.00
2022-10-10T17:19:08.971Z,98649.72
2022-10-10T17:21:36.029Z,98645.41
2022-10-10T17:24:02.704Z,98648.34
2022-10-10T17:26:29.437Z,98659.41
2022-10-10T17:29:00.267Z,98661.22
2022-10-10T17:31:27.376Z,98667.38
2022-10-10T17:33:56.230Z,98671.66
2022-10-10T17:36:25.194Z,98668.97
2022-10-10T17:38:52.784Z,98671.09
2022-10-10T17:41:20.668Z,98668.38
2022-10-10T17:43:47.470Z,98674.22
2022-10-10T17:46:35.291Z,98665.91
2022-10-10T17:49:05.933Z,98667.69
2022-10-10T17:51:32.789Z,98661.66
2022-10-10T17:54:00.695Z,98670.97
2022-10-10T17:56:27.647Z,98667.81
2022-10-10T17:58:54.342Z,98667.81
2022-10-10T18:01:21.378Z,98665.34
2022-10-10T18:03:48.554Z,98666.38
2022-10-10T18:06:18.850Z,98666.25
2022-10-10T18:08:48.008Z,98669.66
2022-10-10T18:11:17.290Z,98671.25
2022-10-10T18:13:44.509Z,98674.75
2022-10-10T18:16:14.267Z,98674.44
2022-10-10T18:18:48.246Z,98674.69
2022-10-10T18:21:17.370Z,98674.63
2022-10-10T18:23:44.062Z,98678.06
2022-10-10T18:26:15.332Z,98678.31
2022-10-10T18:28:43.003Z,98673.56
2022-10-10T18:31:14.038Z,98678.56
2022-10-10T18:33:42.197Z,98682.53
2022-10-10T18:36:09.884Z,98688.38
2022-10-10T18:38:37.806Z,98683.28
2022-10-10T18:41:08.911Z,98680.84
2022-10-10T18:43:36.377Z,98686.69
2022-10-10T18:46:06.060Z,98690.91
2022-10-10T18:48:32.852Z,98687.81
2022-10-10T18:51:01.982Z,98684.28
2022-10-10T18:53:29.150Z,98689.53
2022-10-10T18:55:57.690Z,98691.88
2022-10-10T18:58:24.342Z,98694.25
2022-10-10T19:00:51.051Z,98692.13
2022-10-10T19:03:17.795Z,98695.38
2022-10-10T19:05:44.452Z,98695.38
2022-10-10T19:08:11.186Z,98690.81
2022-10-10T19:10:44.579Z,98695.84
2022-10-10T19:13:11.678Z,98692.38
2022-10-10T19:15:38.709Z,98697.16
2022-10-10T19:18:05.786Z,98695.28
2022-10-10T19:20:33.036Z,98699.00
2022-10-10T19:23:00.387Z,98696.56
2022-10-10T19:25:29.980Z,98693.56
2022-10-10T19:27:57.150Z,98702.16
2022-10-10T19:30:23.932Z,98702.06
2022-10-10T19:32:50.668Z,98707.06
2022-10-10T19:35:17.352Z,98702.56
2022-10-10T19:37:43.992Z,98711.59
2022-10-10T19:40:11.050Z,98710.22
2022-10-10T19:42:38.445Z,98705.38
2022-10-10T19:45:05.375Z,98698.91
2022-10-10T19:47:32.068Z,98706.34
2022-10-10T19:49:58.728Z,98706.59
2022-10-10T19:52:25.403Z,98706.81
2022-10-10T19:54:53.241Z,98707.28
2022-10-10T19:57:19.964Z,98704.28
2022-10-10T19:59:46.646Z,98709.63
2022-10-10T20:02:13.317Z,98707.53
2022-10-10T20:04:39.960Z,98718.44
2022-10-10T20:07:06.740Z,98712.47
2022-10-10T20:09:33.684Z,98718.38
2022-10-10T20:12:00.381Z,98726.28
2022-10-10T20:14:27.007Z,98720.38
2022-10-10T20:16:54.970Z,98715.28
2022-10-10T20:19:21.623Z,98726.53
2022-10-10T20:21:48.307Z,98722.22
2022-10-10T20:24:15.168Z,98721.44
2022-10-10T20:26:41.784Z,98725.13
2022-10-10T20:29:08.727Z,98731.75
2022-10-10T20:31:39.754Z,98729.09
2022-10-10T20:34:07.150Z,98732.56
2022-10-10T20:36:34.718Z,98742.63
2022-10-10T20:39:04.981Z,98735.34
2022-10-10T20:41:33.277Z,98744.38
2022-10-10T20:44:03.298Z,98743.81
2022-10-10T20:46:37.215Z,98755.25
2022-10-10T20:49:06.125Z,98745.19
2022-10-10T20:51:32.799Z,98757.47
2022-10-10T20:54:02.771Z,98749.47
2022-10-10T20:56:30.646Z,98754.31
2022-10-10T20:58:57.460Z,98752.25
2022-10-10T21:01:27.116Z,98764.19
2022-10-10T21:03:54.048Z,98770.31
2022-10-10T21:06:24.206Z,98768.69
2022-10-10T21:08:51.691Z,98772.38
2022-10-10T21:11:19.144Z,98773.47
2022-10-10T21:13:54.072Z,98777.16
2022-10-10T21:16:21.241Z,98777.41
2022-10-10T21:18:57.600Z,98778.69
2022-10-10T21:21:26.140Z,98783.19
2022-10-10T21:23:56.182Z,98780.75
2022-10-10T21:26:24.619Z,98784.94
2022-10-10T21:28:52.857Z,98786.00
2022-10-10T21:31:23.326Z,98782.53
2022-10-10T21:33:50.001Z,98776.41
2022-10-10T21:36:18.519Z,98782.28
2022-10-10T21:38:45.631Z,98776.72
2022-10-10T21:41:16.329Z,98786.00
2022-10-10T21:43:44.692Z,98792.16
2022-10-10T21:46:14.177Z,98793.78
2022-10-10T21:48:41.175Z,98795.59
2022-10-10T21:51:08.392Z,98799.31
2022-10-10T21:53:35.076Z,98791.00
2022-10-10T21:56:07.669Z,98794.47
2022-10-10T21:58:37.583Z,98796.53
2022-10-10T22:01:18.005Z,98792.19
2022-10-10T22:03:47.183Z,98802.84
2022-10-10T22:06:17.121Z,98804.34
2022-10-10T22:08:45.651Z,98797.97
2022-10-10T22:11:16.356Z,98800.41
2022-10-10T22:13:43.202Z,98802.84
2022-10-10T22:16:11.003Z,98795.88
2022-10-10T22:18:38.499Z,98794.75
2022-10-10T22:21:07.451Z,98798.69
2022-10-10T22:23:34.266Z,98799.16
2022-10-10T22:26:01.346Z,98790.59
2022-10-10T22:28:28.321Z,98792.44
2022-10-10T22:30:55.065Z,98790.81
2022-10-10T22:33:21.679Z,98790.13
2022-10-10T22:35:48.265Z,98793.50
2022-10-10T22:38:14.943Z,98800.34
2022-10-10T22:40:41.566Z,98802.78
2022-10-10T22:43:08.201Z,98806.81
2022-10-10T22:45:34.860Z,98805.19
2022-10-10T22:48:02.562Z,98807.41
2022-10-10T22:50:30.184Z,98810.28
2022-10-10T22:52:56.854Z,98814.00
2022-10-10T22:55:23.623Z,98817.72
2022-10-10T22:57:50.416Z,98816.56
2022-10-10T23:00:17.999Z,98816.78
2022-10-10T23:02:44.631Z,98820.72
2022-10-10T23:05:11.296Z,98819.22
2022-10-10T23:07:37.962Z,98823.72
2022-10-10T23:10:05.032Z,98814.69
2022-10-10T23:12:31.625Z,98816.56
2022-10-10T23:14:58.398Z,98811.69
2022-10-10T23:17:25.007Z,98821.78
2022-10-10T23:19:51.636Z,98816.34
2022-10-10T23:22:18.233Z,98818.75
2022-10-10T23:24:44.879Z,98818.41
2022-10-10T23:27:11.562Z,98816.81
2022-10-10T23:29:38.403Z,98817.25
2022-10-10T23:32:05.171Z,98811.69
2022-10-10T23:34:31.805Z,98812.97
2022-10-10T23:36:58.443Z,98816.69
2022-10-10T23:39:25.120Z,98817.25
2022-10-10T23:41:51.753Z,98814.16
2022-10-10T23:44:18.392Z,98812.97
2022-10-10T23:46:45.036Z,98820.94
2022-10-10T23:49:11.699Z,98819.91
2022-10-10T23:51:38.346Z,98828.13
2022-10-10T23:54:05.096Z,98822.94
2022-10-10T23:56:31.771Z,98829.88
2022-10-10T23:58:58.412Z,98835.75
